createdAt,value
2022-08-17T00:01:40.010Z,7.97
2022-08-17T00:04:19.884Z,8.60
2022-08-17T00:06:49.217Z,10.53
2022-08-17T00:09:19.047Z,10.00
2022-08-17T00:12:03.894Z,9.33
2022-08-17T00:14:34.128Z,11.10
2022-08-17T00:17:00.854Z,9.50
2022-08-17T00:19:27.455Z,10.10
2022-08-17T00:22:32.563Z,10.43
2022-08-17T00:24:44.563Z,9.30
2022-08-17T00:27:11.266Z,9.07
2022-08-17T00:29:37.863Z,9.03
2022-08-17T00:33:15.410Z,12.07
2022-08-17T00:34:51.242Z,8.90
2022-08-17T00:37:18.567Z,10.33
2022-08-17T00:39:45.166Z,8.30
2022-08-17T00:42:17.405Z,10.33
2022-08-17T00:44:44.345Z,11.73
2022-08-17T00:47:10.907Z,9.00
2022-08-17T00:49:37.562Z,9.73
2022-08-17T00:52:15.533Z,9.47
2022-08-17T00:54:45.009Z,11.63
2022-08-17T00:57:17.489Z,10.23
2022-08-17T00:59:56.032Z,9.00
2022-08-17T01:02:42.034Z,10.47
2022-08-17T01:05:15.043Z,12.10
2022-08-17T01:07:43.133Z,13.00
2022-08-17T01:11:00.251Z,10.20
2022-08-17T01:13:02.531Z,9.90
2022-08-17T01:15:36.496Z,10.73
2022-08-17T01:18:08.148Z,9.23
2022-08-17T01:20:48.346Z,10.80
2022-08-17T01:23:20.427Z,9.83
2022-08-17T01:25:55.281Z,13.57
2022-08-17T01:28:52.799Z,9.57
2022-08-17T01:31:15.236Z,9.77
2022-08-17T01:33:41.960Z,13.20
2022-08-17T01:36:09.331Z,9.50
2022-08-17T01:38:37.423Z,8.63
2022-08-17T01:41:11.254Z,9.63
2022-08-17T01:43:47.543Z,9.13
2022-08-17T01:46:23.072Z,10.47
2022-08-17T01:48:51.260Z,9.67
2022-08-17T01:51:18.124Z,9.00
2022-08-17T01:53:50.741Z,10.53
2022-08-17T01:56:21.577Z,9.57
2022-08-17T01:58:48.617Z,8.77
2022-08-17T02:01:18.028Z,14.63
2022-08-17T02:03:56.097Z,10.70
2022-08-17T02:06:47.038Z,10.17
2022-08-17T02:09:19.524Z,8.87
2022-08-17T02:11:50.034Z,10.27
2022-08-17T02:14:16.812Z,11.30
2022-08-17T02:16:43.700Z,11.93
2022-08-17T02:19:15.749Z,9.23
2022-08-17T02:21:45.896Z,9.00
2022-08-17T02:24:17.444Z,10.90
2022-08-17T02:27:04.581Z,9.33
2022-08-17T02:29:31.422Z,9.37
2022-08-17T02:31:58.652Z,11.57
2022-08-17T02:34:26.307Z,9.70
2022-08-17T02:36:53.488Z,9.17
2022-08-17T02:39:20.285Z,11.77
2022-08-17T02:41:46.935Z,8.23
2022-08-17T02:44:13.614Z,11.97
2022-08-17T02:47:00.721Z,10.93
2022-08-17T02:49:27.281Z,9.23
2022-08-17T02:51:53.843Z,10.33
2022-08-17T02:54:39.916Z,9.77
2022-08-17T02:57:07.390Z,9.70
2022-08-17T02:59:34.095Z,8.93
2022-08-17T03:02:03.455Z,8.70
2022-08-17T03:04:30.399Z,11.53
2022-08-17T03:06:56.997Z,7.77
2022-08-17T03:09:23.795Z,9.40
2022-08-17T03:11:53.078Z,9.50
2022-08-17T03:14:26.091Z,10.70
2022-08-17T03:16:53.061Z,9.30
2022-08-17T03:19:19.617Z,7.40
2022-08-17T03:21:46.165Z,10.40
2022-08-17T03:24:21.730Z,11.20
2022-08-17T03:26:55.466Z,10.33
2022-08-17T03:29:22.260Z,8.90
2022-08-17T03:31:50.028Z,10.20
2022-08-17T03:34:17.212Z,8.67
2022-08-17T03:36:43.933Z,8.77
2022-08-17T03:39:10.573Z,14.20
2022-08-17T03:41:39.041Z,9.47
2022-08-17T03:44:05.885Z,9.30
2022-08-17T03:46:51.121Z,10.90
2022-08-17T03:49:35.903Z,7.57
2022-08-17T03:52:20.777Z,17.13
2022-08-17T03:55:05.684Z,10.77
2022-08-17T03:57:32.544Z,8.37
2022-08-17T03:59:59.865Z,7.97
2022-08-17T04:02:34.264Z,11.47
2022-08-17T04:05:03.495Z,10.00
2022-08-17T04:07:31.499Z,8.03
2022-08-17T04:09:59.495Z,8.70
2022-08-17T04:12:31.259Z,7.60
2022-08-17T04:14:58.443Z,8.80
2022-08-17T04:17:29.419Z,8.83
2022-08-17T04:19:56.946Z,7.97
2022-08-17T04:22:32.537Z,7.47
2022-08-17T04:25:13.884Z,8.03
2022-08-17T04:27:40.518Z,9.07
2022-08-17T04:30:07.748Z,8.50
2022-08-17T04:33:19.132Z,9.00
2022-08-17T04:35:50.161Z,8.33
2022-08-17T04:38:20.078Z,9.57
2022-08-17T04:41:06.009Z,12.37
2022-08-17T04:43:39.932Z,12.13
2022-08-17T04:46:10.147Z,9.87
2022-08-17T04:48:39.787Z,10.57
2022-08-17T04:51:19.307Z,9.70
2022-08-17T04:53:53.193Z,11.27
2022-08-17T04:56:21.916Z,7.90
2022-08-17T04:58:51.418Z,8.27
2022-08-17T05:01:24.065Z,10.57
2022-08-17T05:03:53.301Z,8.33
2022-08-17T05:06:20.533Z,9.37
2022-08-17T05:08:47.881Z,9.57
2022-08-17T05:11:14.703Z,8.77
2022-08-17T05:13:41.365Z,11.93
2022-08-17T05:16:09.216Z,9.27
2022-08-17T05:18:37.316Z,11.97
2022-08-17T05:21:04.485Z,10.07
2022-08-17T05:23:35.008Z,10.67
2022-08-17T05:26:25.997Z,9.53
2022-08-17T05:28:58.445Z,9.53
2022-08-17T05:31:27.359Z,12.60
2022-08-17T05:33:53.958Z,8.53
2022-08-17T05:36:42.154Z,13.17
2022-08-17T05:39:07.686Z,8.83
2022-08-17T05:41:34.305Z,12.03
2022-08-17T05:44:00.901Z,9.57
2022-08-17T05:46:40.308Z,9.83
2022-08-17T05:49:08.143Z,12.20
2022-08-17T05:52:03.194Z,11.77
2022-08-17T05:54:39.568Z,8.90
2022-08-17T05:57:17.965Z,12.00
2022-08-17T06:00:14.281Z,12.87
2022-08-17T06:02:56.140Z,12.87
2022-08-17T06:05:51.483Z,10.60
2022-08-17T06:08:32.028Z,11.07
2022-08-17T06:11:27.971Z,11.87
2022-08-17T06:14:22.213Z,8.97
2022-08-17T06:16:56.788Z,12.23
2022-08-17T06:19:36.316Z,26.73
2022-08-17T06:22:06.058Z,11.73
2022-08-17T06:24:42.063Z,11.57
2022-08-17T06:27:21.153Z,11.53
2022-08-17T06:30:05.445Z,8.33
2022-08-17T06:32:32.232Z,10.80
2022-08-17T06:35:00.525Z,17.23
2022-08-17T06:38:04.674Z,10.13
2022-08-17T06:41:01.994Z,11.07
2022-08-17T06:43:40.434Z,13.07
2022-08-17T06:46:13.114Z,9.13
2022-08-17T06:49:08.019Z,7.77
2022-08-17T06:51:53.691Z,6.83
2022-08-17T06:55:02.011Z,9.60
2022-08-17T06:57:32.029Z,7.23
2022-08-17T07:00:04.352Z,7.07
2022-08-17T07:02:51.522Z,5.83
2022-08-17T07:05:28.107Z,8.17
2022-08-17T07:08:02.920Z,9.47
2022-08-17T07:10:36.509Z,13.63
2022-08-17T07:13:17.087Z,11.07
2022-08-17T07:15:45.506Z,8.30
2022-08-17T07:18:12.096Z,13.63
2022-08-17T07:20:43.808Z,10.00
2022-08-17T07:23:26.880Z,10.90
2022-08-17T07:25:53.470Z,11.20
2022-08-17T07:28:23.233Z,9.40
2022-08-17T07:30:54.633Z,18.37
2022-08-17T07:33:26.261Z,10.63
2022-08-17T07:35:58.236Z,11.50
2022-08-17T07:38:33.345Z,10.23
2022-08-17T07:41:07.105Z,12.83
2022-08-17T07:43:39.941Z,9.80
2022-08-17T07:46:46.372Z,12.77
2022-08-17T07:49:12.906Z,9.63
2022-08-17T07:51:42.581Z,10.40
2022-08-17T07:54:15.398Z,11.93
2022-08-17T07:56:42.168Z,17.63
2022-08-17T07:59:10.702Z,11.97
2022-08-17T08:01:41.888Z,18.80
2022-08-17T08:04:20.080Z,15.17
2022-08-17T08:06:59.634Z,16.47
2022-08-17T08:09:41.731Z,15.97
2022-08-17T08:12:21.838Z,12.93
2022-08-17T08:15:14.044Z,14.63
2022-08-17T08:17:52.085Z,11.70
2022-08-17T08:20:50.957Z,12.33
2022-08-17T08:23:34.109Z,12.93
2022-08-17T08:26:03.560Z,13.57
2022-08-17T08:28:39.787Z,12.80
2022-08-17T08:31:09.673Z,11.63
2022-08-17T08:33:40.069Z,12.90
2022-08-17T08:37:14.453Z,12.50
2022-08-17T08:40:15.119Z,16.73
2022-08-17T08:43:04.001Z,14.37
2022-08-17T08:45:49.157Z,13.40
2022-08-17T08:48:22.932Z,11.43
2022-08-17T08:51:33.014Z,14.60
2022-08-17T08:54:16.572Z,17.30
2022-08-17T08:59:59.763Z,13.83
2022-08-17T09:03:04.197Z,14.20
2022-08-17T09:05:42.968Z,16.80
2022-08-17T09:08:21.869Z,16.43
2022-08-17T09:11:27.033Z,17.80
2022-08-17T09:13:57.541Z,13.87
2022-08-17T09:16:45.646Z,20.00
2022-08-17T09:19:19.509Z,13.50
2022-08-17T09:21:55.599Z,16.00
2022-08-17T09:24:32.176Z,16.93
2022-08-17T09:27:14.790Z,18.97
2022-08-17T09:30:00.248Z,18.67
2022-08-17T09:32:52.161Z,14.80
2022-08-17T09:35:24.202Z,13.27
2022-08-17T09:38:15.268Z,14.30
2022-08-17T09:41:03.760Z,15.27
2022-08-17T09:43:41.585Z,15.63
2022-08-17T09:46:18.281Z,19.53
2022-08-17T09:48:59.762Z,14.87
2022-08-17T09:51:35.283Z,18.40
2022-08-17T09:54:34.739Z,16.40
2022-08-17T09:57:11.925Z,18.57
2022-08-17T10:00:30.415Z,14.90
2022-08-17T10:03:19.885Z,15.67
2022-08-17T10:06:01.603Z,17.23
2022-08-17T10:08:52.312Z,25.03
2022-08-17T10:12:06.810Z,23.77
2022-08-17T10:14:43.970Z,23.13
2022-08-17T10:17:17.188Z,23.40
2022-08-17T10:19:58.659Z,29.23
2022-08-17T10:22:54.823Z,24.17
2022-08-17T10:25:55.026Z,21.23
2022-08-17T10:28:30.532Z,22.73
2022-08-17T10:31:32.981Z,24.60
2022-08-17T10:34:19.185Z,22.77
2022-08-17T10:36:58.229Z,23.43
2022-08-17T10:39:36.574Z,23.93
2022-08-17T10:42:35.275Z,22.37
2022-08-17T10:45:07.542Z,24.87
2022-08-17T10:47:56.062Z,27.23
2022-08-17T10:50:59.998Z,22.53
2022-08-17T10:53:32.500Z,29.83
2022-08-17T10:56:14.414Z,22.27
2022-08-17T10:58:57.898Z,26.13
2022-08-17T11:01:38.218Z,24.23
2022-08-17T11:04:21.396Z,27.77
2022-08-17T11:07:02.387Z,26.20
2022-08-17T11:09:58.487Z,23.97
2022-08-17T11:13:11.644Z,26.27
2022-08-17T11:15:44.110Z,27.27
2022-08-17T11:18:28.278Z,30.50
2022-08-17T11:20:57.975Z,25.70
2022-08-17T11:23:40.054Z,27.50
2022-08-17T11:26:26.317Z,29.07
2022-08-17T11:29:00.140Z,26.23
2022-08-17T11:31:40.285Z,31.80
2022-08-17T11:34:26.567Z,32.00
2022-08-17T11:37:31.881Z,32.03
2022-08-17T11:40:33.785Z,27.17
2022-08-17T11:43:28.521Z,30.53
2022-08-17T11:46:19.975Z,30.17
2022-08-17T11:49:27.035Z,32.93
2022-08-17T11:52:01.047Z,32.80
2022-08-17T11:54:33.776Z,35.10
2022-08-17T11:57:25.825Z,35.13
2022-08-17T12:00:11.359Z,35.90
2022-08-17T12:02:49.051Z,35.80
2022-08-17T12:05:19.438Z,33.03
2022-08-17T12:07:52.634Z,34.53
2022-08-17T12:10:30.383Z,32.73
2022-08-17T12:12:58.720Z,41.30
2022-08-17T12:15:42.738Z,32.10
2022-08-17T12:18:29.330Z,37.53
2022-08-17T12:21:12.250Z,41.47
2022-08-17T12:24:06.804Z,40.73
2022-08-17T12:26:35.923Z,40.60
2022-08-17T12:29:06.516Z,37.73
2022-08-17T12:31:44.346Z,38.30
2022-08-17T12:34:39.260Z,36.30
2022-08-17T12:37:18.700Z,39.43
2022-08-17T12:40:03.924Z,43.03
2022-08-17T12:42:37.584Z,44.03
2022-08-17T12:45:07.630Z,46.90
2022-08-17T12:47:37.502Z,44.13
2022-08-17T12:50:29.897Z,42.70
2022-08-17T12:53:01.091Z,46.27
2022-08-17T12:55:32.556Z,47.07
2022-08-17T12:58:01.899Z,40.27
2022-08-17T13:00:34.854Z,45.53
2022-08-17T13:03:15.794Z,41.20
2022-08-17T13:05:59.792Z,44.63
2022-08-17T13:08:50.476Z,42.93
2022-08-17T13:11:22.516Z,46.53
2022-08-17T13:13:52.002Z,44.80
2022-08-17T13:16:22.850Z,41.00
2022-08-17T13:18:55.609Z,45.83
2022-08-17T13:21:30.622Z,45.63
2022-08-17T13:24:07.820Z,45.13
2022-08-17T13:26:38.288Z,44.30
2022-08-17T13:29:23.641Z,41.77
2022-08-17T13:31:56.627Z,42.50
2022-08-17T13:35:03.727Z,47.53
2022-08-17T13:37:35.323Z,44.63
2022-08-17T13:40:25.001Z,45.17
2022-08-17T13:42:54.224Z,37.63
2022-08-17T13:45:39.603Z,42.07
2022-08-17T13:48:14.528Z,39.27
2022-08-17T13:50:50.067Z,48.33
2022-08-17T13:53:36.987Z,48.03
2022-08-17T13:56:37.428Z,46.50
2022-08-17T13:59:09.894Z,45.53
2022-08-17T14:01:42.798Z,49.40
2022-08-17T14:04:16.576Z,47.63
2022-08-17T14:07:20.381Z,48.60
2022-08-17T14:09:52.348Z,46.40
2022-08-17T14:12:22.291Z,41.23
2022-08-17T14:14:49.838Z,39.90
2022-08-17T14:17:16.566Z,46.63
2022-08-17T14:19:43.321Z,49.60
2022-08-17T14:22:18.888Z,48.87
2022-08-17T14:24:46.008Z,44.63
2022-08-17T14:27:12.670Z,39.93
2022-08-17T14:29:41.296Z,38.37
2022-08-17T14:32:26.825Z,40.13
2022-08-17T14:34:56.849Z,36.07
2022-08-17T14:37:28.630Z,40.70
2022-08-17T14:39:57.528Z,43.57
2022-08-17T14:42:27.826Z,36.17
2022-08-17T14:44:55.491Z,39.67
2022-08-17T14:47:22.894Z,42.30
2022-08-17T14:49:49.622Z,40.90
2022-08-17T14:52:22.025Z,39.00
2022-08-17T14:54:52.926Z,42.57
2022-08-17T14:57:33.179Z,39.50
2022-08-17T15:00:02.663Z,36.77
2022-08-17T15:02:31.037Z,32.63
2022-08-17T15:05:06.101Z,34.20
2022-08-17T15:07:32.884Z,40.87
2022-08-17T15:10:02.472Z,33.33
2022-08-17T15:12:33.641Z,35.70
2022-08-17T15:15:04.605Z,37.80
2022-08-17T15:17:44.617Z,32.53
2022-08-17T15:20:16.035Z,33.93
2022-08-17T15:22:44.648Z,31.87
2022-08-17T15:25:12.330Z,35.53
2022-08-17T15:27:39.118Z,29.40
2022-08-17T15:30:07.532Z,28.73
2022-08-17T15:32:38.685Z,24.90
2022-08-17T15:35:07.925Z,27.20
2022-08-17T15:37:36.482Z,25.57
2022-08-17T15:40:05.469Z,31.10
2022-08-17T15:42:32.491Z,27.23
2022-08-17T15:45:00.165Z,28.00
2022-08-17T15:47:26.971Z,33.33
2022-08-17T15:49:59.409Z,33.47
2022-08-17T15:52:30.148Z,31.47
2022-08-17T15:54:59.708Z,31.90
2022-08-17T15:57:27.504Z,31.23
2022-08-17T15:59:59.198Z,34.10
2022-08-17T16:03:45.712Z,37.93
2022-08-17T16:05:24.868Z,33.40
2022-08-17T16:07:52.563Z,39.13
2022-08-17T16:10:19.786Z,36.80
2022-08-17T16:12:48.765Z,40.57
2022-08-17T16:15:16.709Z,44.37
2022-08-17T16:17:43.682Z,41.47
2022-08-17T16:20:20.512Z,36.70
2022-08-17T16:22:49.534Z,40.70
2022-08-17T16:25:21.798Z,37.90
2022-08-17T16:27:50.714Z,38.50
2022-08-17T16:30:18.120Z,38.83
2022-08-17T16:32:45.236Z,34.20
2022-08-17T16:35:16.740Z,34.60
2022-08-17T16:37:46.961Z,34.17
2022-08-17T16:40:15.856Z,32.87
2022-08-17T16:42:43.435Z,34.77
2022-08-17T16:45:20.481Z,35.07
2022-08-17T16:47:50.187Z,32.07
2022-08-17T16:50:19.770Z,32.00
2022-08-17T16:52:50.499Z,33.80
2022-08-17T16:55:21.477Z,33.87
2022-08-17T16:57:50.230Z,29.97
2022-08-17T17:00:19.487Z,31.20
2022-08-17T17:02:49.641Z,36.73
2022-08-17T17:05:25.662Z,43.07
2022-08-17T17:08:12.813Z,36.23
2022-08-17T17:10:47.567Z,31.67
2022-08-17T17:13:26.500Z,34.57
2022-08-17T17:16:05.667Z,38.50
2022-08-17T17:18:40.694Z,40.00
2022-08-17T17:21:13.573Z,40.53
2022-08-17T17:24:00.291Z,37.13
2022-08-17T17:26:46.880Z,38.37
2022-08-17T17:29:18.535Z,39.73
2022-08-17T17:31:56.461Z,35.47
2022-08-17T17:34:26.656Z,34.30
2022-08-17T17:36:58.437Z,35.77
2022-08-17T17:39:55.901Z,33.47
2022-08-17T17:42:28.815Z,35.73
2022-08-17T17:45:03.737Z,36.07
2022-08-17T17:47:31.423Z,33.63
2022-08-17T17:50:00.825Z,33.13
2022-08-17T17:52:46.398Z,31.70
2022-08-17T17:55:33.419Z,34.73
2022-08-17T17:58:09.756Z,35.80
2022-08-17T18:00:43.938Z,31.93
2022-08-17T18:03:44.103Z,30.30
2022-08-17T18:06:28.653Z,27.77
2022-08-17T18:09:28.493Z,28.00
2022-08-17T18:12:19.902Z,25.67
2022-08-17T18:14:49.756Z,30.60
2022-08-17T18:17:18.302Z,28.87
2022-08-17T18:19:45.361Z,27.10
2022-08-17T18:22:21.911Z,26.70
2022-08-17T18:24:56.556Z,27.73
2022-08-17T18:27:25.884Z,26.70
2022-08-17T18:29:55.630Z,29.70
2022-08-17T18:32:28.622Z,27.37
2022-08-17T18:35:09.210Z,25.70
2022-08-17T18:37:35.911Z,27.33
2022-08-17T18:40:33.696Z,23.60
2022-08-17T18:43:22.972Z,28.10
2022-08-17T18:45:52.983Z,26.73
2022-08-17T18:48:36.227Z,29.63
2022-08-17T18:51:39.823Z,27.67
2022-08-17T18:54:17.505Z,26.60
2022-08-17T18:56:51.473Z,28.13
2022-08-17T18:59:40.449Z,25.23
2022-08-17T19:02:44.638Z,28.00
2022-08-17T19:05:33.808Z,26.40
2022-08-17T19:08:21.386Z,26.20
2022-08-17T19:11:10.879Z,24.07
2022-08-17T19:13:43.930Z,24.17
2022-08-17T19:16:14.935Z,23.53
2022-08-17T19:19:14.677Z,22.50
2022-08-17T19:21:57.496Z,19.47
2022-08-17T19:24:27.134Z,19.77
2022-08-17T19:27:06.310Z,21.53
2022-08-17T19:29:42.583Z,22.00
2022-08-17T19:32:11.063Z,22.33
2022-08-17T19:34:39.177Z,24.33
2022-08-17T19:37:20.853Z,23.90
2022-08-17T19:40:07.121Z,28.10
2022-08-17T19:42:52.919Z,25.63
2022-08-17T19:45:34.423Z,24.13
2022-08-17T19:48:19.516Z,23.73
2022-08-17T19:51:07.538Z,25.63
2022-08-17T19:54:03.789Z,23.07
2022-08-17T19:57:01.727Z,24.27
2022-08-17T20:00:13.429Z,26.43
2022-08-17T20:02:55.547Z,25.87
2022-08-17T20:06:09.161Z,28.23
2022-08-17T20:08:38.727Z,29.27
2022-08-17T20:11:15.234Z,27.87
2022-08-17T20:13:46.411Z,28.37
2022-08-17T20:16:13.168Z,25.07
2022-08-17T20:18:54.885Z,26.93
2022-08-17T20:21:29.186Z,27.67
2022-08-17T20:24:05.892Z,27.33
2022-08-17T20:26:55.213Z,31.37
2022-08-17T20:29:40.093Z,29.47
2022-08-17T20:32:21.632Z,30.50
2022-08-17T20:34:48.490Z,32.33
2022-08-17T20:37:15.066Z,33.13
2022-08-17T20:40:04.929Z,33.90
2022-08-17T20:42:33.942Z,34.70
2022-08-17T20:45:22.243Z,30.83
2022-08-17T20:48:18.606Z,34.13
2022-08-17T20:50:44.330Z,34.10
2022-08-17T20:53:15.016Z,36.53
2022-08-17T20:55:52.312Z,38.37
2022-08-17T20:58:21.295Z,37.73
2022-08-17T21:00:57.138Z,35.20
2022-08-17T21:03:23.964Z,38.47
2022-08-17T21:06:15.346Z,39.87
2022-08-17T21:08:53.286Z,39.77
2022-08-17T21:11:57.032Z,35.93
2022-08-17T21:14:31.821Z,36.80
2022-08-17T21:17:07.648Z,39.63
2022-08-17T21:20:07.656Z,39.70
2022-08-17T21:22:36.181Z,44.50
2022-08-17T21:25:34.259Z,42.80
2022-08-17T21:28:11.454Z,42.83
2022-08-17T21:30:39.771Z,43.97
2022-08-17T21:33:21.307Z,43.77
2022-08-17T21:35:52.450Z,45.87
2022-08-17T21:38:23.365Z,46.80
2022-08-17T21:40:54.149Z,45.03
2022-08-17T21:43:32.579Z,45.13
2022-08-17T21:46:10.650Z,48.00
2022-08-17T21:48:44.822Z,48.30
2022-08-17T21:51:19.750Z,50.57
2022-08-17T21:53:59.700Z,50.77
2022-08-17T21:56:37.649Z,50.90
2022-08-17T21:59:30.115Z,51.03
2022-08-17T22:02:03.308Z,51.87
2022-08-17T22:04:31.895Z,53.87
2022-08-17T22:07:01.468Z,49.73
2022-08-17T22:09:32.456Z,50.63
2022-08-17T22:12:01.911Z,57.33
2022-08-17T22:14:53.394Z,54.90
2022-08-17T22:17:37.066Z,58.13
2022-08-17T22:20:14.566Z,59.60
2022-08-17T22:23:08.977Z,60.23
2022-08-17T22:25:56.368Z,58.77
2022-08-17T22:28:43.210Z,59.67
2022-08-17T22:31:14.449Z,58.87
2022-08-17T22:33:50.703Z,61.00
2022-08-17T22:36:29.229Z,63.87
2022-08-17T22:39:22.399Z,60.07
2022-08-17T22:41:55.912Z,61.17
2022-08-17T22:44:48.083Z,61.87
2022-08-17T22:47:14.982Z,61.33
2022-08-17T22:49:53.546Z,63.30
2022-08-17T22:52:34.235Z,64.10
2022-08-17T22:55:24.925Z,64.13
2022-08-17T22:58:10.820Z,62.37
2022-08-17T23:00:43.386Z,61.60
2022-08-17T23:03:28.222Z,62.90
2022-08-17T23:06:08.300Z,61.70
2022-08-17T23:09:08.711Z,63.03
2022-08-17T23:11:48.941Z,60.27
2022-08-17T23:14:18.811Z,58.83
2022-08-17T23:16:46.226Z,59.50
2022-08-17T23:19:15.565Z,60.40
2022-08-17T23:21:45.186Z,59.40
2022-08-17T23:24:16.866Z,58.60
2022-08-17T23:26:43.489Z,61.00
2022-08-17T23:29:10.147Z,60.47
2022-08-17T23:31:38.758Z,60.53
2022-08-17T23:34:11.667Z,59.00
2022-08-17T23:36:38.881Z,57.17
2022-08-17T23:39:06.685Z,57.90
2022-08-17T23:41:39.053Z,58.80
2022-08-17T23:44:07.032Z,55.33
2022-08-17T23:46:34.768Z,54.33
2022-08-17T23:49:01.537Z,52.70
2022-08-17T23:51:38.392Z,56.23
2022-08-17T23:54:16.075Z,55.60
2022-08-17T23:56:46.725Z,50.60
2022-08-17T23:59:15.110Z,51.20
